Time;durP1;ratioP1;P1;durP2;ratioP2;P2;SDS_P1;SDS_P2;PMS_P1;PMS_P2;Temp;Humidity;BMP_temperature;BMP_pressure;BME280_temperature;BME280_humidity;BME280_pressure;Samples;Min_cycle;Max_cycle;Signal;HPM_P1;HPM_P2
2022/05/13 04:10:10;;;;;;;;;;;;;;;20.31;65.54;97298.34;4203425;27;10309;-69
2022/05/13 04:16:55;;;;;;;;;;;;;;;20.89;64.89;97297.13;4186457;28;5710;-68
2022/05/13 04:18:58;;;;;;;;;;;;;;;21.02;65.03;97299.47;4187529;28;6670;-68
2022/05/13 04:21:04;;;;;;;;;;;;;;;21.12;64.30;97304.16;4194310;28;5838;-68
2022/05/13 04:23:06;;;;;;;;;;;;;;;21.19;64.50;97289.50;4181902;28;5755;-67
2022/05/13 04:25:12;;;;;;;;;;;;;;;21.28;64.50;97297.16;4181576;28;5724;-68
2022/05/13 04:27:15;;;;;;;;;;;;;;;21.31;64.31;97296.66;4181388;28;5743;-68
2022/05/13 04:29:18;;;;;;;;;;;;;;;21.37;63.89;97298.34;4181437;28;5755;-68
2022/05/13 04:31:22;;;;;;;;;;;;;;;21.39;63.75;97302.41;4182425;28;5752;-69
2022/05/13 04:33:26;;;;;;;;;;;;;;;21.43;64.00;97300.06;4185846;28;5925;-68
2022/05/13 04:35:29;;;;;;;;;;;;;;;21.46;63.33;97308.44;4187888;28;5722;-68
2022/05/13 04:37:32;;;;;;;;;;;;;;;21.49;63.48;97310.59;4182153;28;5728;-68
2022/05/13 04:39:35;;;;;;;;;;;;;;;21.53;63.44;97312.81;4197843;28;6206;-66
2022/05/13 04:44:01;;;;;;;;;;;;;;;21.61;62.79;97315.06;4203511;28;5721;-69
2022/05/13 04:46:04;;;;;;;;;;;;;;;21.62;62.84;97322.06;4190859;28;5727;-70
2022/05/13 04:48:16;;;;;;;;;;;;;;;21.63;62.25;97318.28;4196785;28;5714;-70
2022/05/13 04:50:21;;;;;;;;;;;;;;;21.68;62.17;97313.00;4185388;28;5913;-70
2022/05/13 04:52:25;;;;;;;;;;;;;;;21.71;62.06;97309.78;4192488;28;6388;-69
2022/05/13 04:54:28;;;;;;;;;;;;;;;21.74;61.78;97317.34;4194075;28;5797;-68
2022/05/13 04:56:31;;;;;;;;;;;;;;;21.77;61.81;97324.94;4195158;28;6874;-69
2022/05/13 04:58:36;;;;;;;;;;;;;;;21.80;61.34;97316.34;4192517;28;5950;-69
2022/05/13 05:00:39;;;;;;;;;;;;;;;21.83;61.21;97317.72;4194168;28;5707;-68
2022/05/13 05:02:42;;;;;;;;;;;;;;;21.85;61.07;97308.31;4197706;28;5711;-69
2022/05/13 05:04:45;;;;;;;;;;;;;;;21.89;60.95;97312.16;4196839;28;5872;-69
2022/05/13 05:06:48;;;;;;;;;;;;;;;21.90;60.96;97313.78;4197758;28;6432;-69
2022/05/13 05:08:53;;;;;;;;;;;;;;;21.91;60.82;97307.34;4189915;28;5734;-69
2022/05/13 05:10:57;;;;;;;;;;;;;;;21.92;60.96;97322.41;4180549;28;5738;-69
2022/05/13 05:13:00;;;;;;;;;;;;;;;21.91;60.73;97320.78;4180946;28;5826;-69
2022/05/13 05:15:06;;;;;;;;;;;;;;;21.91;60.84;97323.47;4182694;28;5715;-70
2022/05/13 05:17:09;;;;;;;;;;;;;;;21.92;60.53;97327.00;4182480;28;5710;-69
2022/05/13 05:19:13;;;;;;;;;;;;;;;21.93;60.44;97329.41;4180795;28;5728;-69
2022/05/13 05:21:16;;;;;;;;;;;;;;;21.94;60.74;97341.00;4184974;28;5793;-69
2022/05/13 05:23:21;;;;;;;;;;;;;;;21.92;60.52;97337.75;4179989;28;5803;-70
2022/05/13 05:25:28;;;;;;;;;;;;;;;21.92;60.68;97340.44;4177068;28;5875;-68
2022/05/13 05:27:35;;;;;;;;;;;;;;;21.93;60.16;97334.81;4177228;28;6400;-68
2022/05/13 05:29:38;;;;;;;;;;;;;;;21.94;60.26;97331.03;4181731;28;5895;-67
2022/05/13 05:31:42;;;;;;;;;;;;;;;21.95;60.37;97334.56;4185109;28;5697;-68
2022/05/13 05:33:45;;;;;;;;;;;;;;;21.93;60.13;97345.56;4180205;28;5941;-68
2022/05/13 05:35:48;;;;;;;;;;;;;;;21.94;59.93;97349.88;4177032;28;5719;-68
2022/05/13 05:37:51;;;;;;;;;;;;;;;21.96;59.72;97341.56;4184550;28;5726;-71
2022/05/13 05:39:54;;;;;;;;;;;;;;;22.00;59.72;97342.69;4170095;28;5740;-71
2022/05/13 05:41:57;;;;;;;;;;;;;;;22.06;59.38;97333.63;4179117;28;5731;-71
2022/05/13 05:44:00;;;;;;;;;;;;;;;22.14;59.12;97332.38;4181773;28;7083;-71
2022/05/13 05:46:03;;;;;;;;;;;;;;;22.22;58.63;97334.63;4171413;28;5834;-71
2022/05/13 05:48:10;;;;;;;;;;;;;;;22.30;58.29;97336.81;4174708;28;5790;-71
2022/05/13 05:50:15;;;;;;;;;;;;;;;22.39;57.98;97332.59;4186262;28;5605;-71
2022/05/13 05:52:18;;;;;;;;;;;;;;;22.46;57.42;97327.03;4183014;28;6398;-71
2022/05/13 05:59:02;;;;;;;;;;;;;;;22.57;56.35;97324.16;4168965;28;5731;-71
2022/05/13 06:01:05;;;;;;;;;;;;;;;22.65;56.49;97321.00;4180621;28;6440;-71
2022/05/13 06:03:10;;;;;;;;;;;;;;;22.73;56.21;97324.28;4185010;28;5731;-71
2022/05/13 06:05:13;;;;;;;;;;;;;;;22.80;55.77;97332.97;4170950;28;5842;-71
2022/05/13 06:07:17;;;;;;;;;;;;;;;22.85;55.70;97343.81;4169264;28;5812;-71
2022/05/13 06:09:25;;;;;;;;;;;;;;;22.91;55.53;97350.88;4183657;28;5719;-78
2022/05/13 06:11:29;;;;;;;;;;;;;;;22.98;55.45;97353.31;4179729;28;5743;-78
2022/05/13 06:13:33;;;;;;;;;;;;;;;23.03;54.70;97351.50;4171461;28;5950;-77
2022/05/13 06:15:37;;;;;;;;;;;;;;;23.08;54.65;97362.31;4179992;28;5760;-77
2022/05/13 06:17:44;;;;;;;;;;;;;;;23.12;54.67;97349.94;4170637;28;5740;-73
2022/05/13 06:19:50;;;;;;;;;;;;;;;23.19;54.73;97360.50;4179286;28;5946;-73
2022/05/13 06:21:53;;;;;;;;;;;;;;;23.22;54.92;97354.59;4167990;28;6508;-72
2022/05/13 06:23:56;;;;;;;;;;;;;;;23.20;54.83;97352.13;4174880;28;5802;-73
2022/05/13 06:25:59;;;;;;;;;;;;;;;23.23;54.79;97354.34;4184850;28;6388;-73
2022/05/13 06:28:03;;;;;;;;;;;;;;;23.29;54.80;97357.88;4184910;28;5789;-73
2022/05/13 06:30:08;;;;;;;;;;;;;;;23.34;54.45;97351.69;4182297;28;5766;-73
2022/05/13 06:32:12;;;;;;;;;;;;;;;23.36;54.56;97353.06;4167546;28;5768;-73
2022/05/13 06:34:16;;;;;;;;;;;;;;;23.35;54.50;97356.84;4169002;28;5735;-73
2022/05/13 06:36:20;;;;;;;;;;;;;;;23.35;54.37;97354.13;4168520;28;5735;-73
2022/05/13 06:38:25;;;;;;;;;;;;;;;23.38;54.52;97355.50;4175303;28;5733;-73
2022/05/13 06:40:28;;;;;;;;;;;;;;;23.39;54.21;97360.63;4171440;28;5715;-73
2022/05/13 06:42:31;;;;;;;;;;;;;;;23.41;54.22;97349.56;4185339;28;5711;-73
2022/05/13 06:44:34;;;;;;;;;;;;;;;23.43;54.01;97348.22;4178782;28;6421;-73
2022/05/13 06:46:39;;;;;;;;;;;;;;;23.43;54.00;97358.19;4185200;28;5727;-73
2022/05/13 06:48:42;;;;;;;;;;;;;;;23.42;53.92;97346.59;4180890;28;5867;-73
2022/05/13 06:50:46;;;;;;;;;;;;;;;23.43;53.54;97352.81;4177317;28;5718;-74
2022/05/13 06:52:50;;;;;;;;;;;;;;;23.41;53.66;97354.97;4182782;28;5797;-75
2022/05/13 06:54:53;;;;;;;;;;;;;;;23.38;53.30;97353.59;4177024;28;5841;-74
2022/05/13 06:56:56;;;;;;;;;;;;;;;23.36;53.08;97355.75;4186812;28;5686;-74
2022/05/13 06:59:00;;;;;;;;;;;;;;;23.33;53.26;97363.53;4192692;28;5715;-73
2022/05/13 07:01:03;;;;;;;;;;;;;;;23.33;52.83;97363.53;4181291;28;5776;-72
2022/05/13 07:03:07;;;;;;;;;;;;;;;23.30;52.83;97372.97;4170007;28;5807;-76
2022/05/13 07:05:12;;;;;;;;;;;;;;;23.28;52.44;97366.22;4180470;28;5717;-69
2022/05/13 07:07:15;;;;;;;;;;;;;;;23.25;52.06;97367.56;4185440;28;5726;-76
2022/05/13 07:09:20;;;;;;;;;;;;;;;23.24;51.75;97364.06;4174413;28;5925;-72
2022/05/13 07:11:23;;;;;;;;;;;;;;;23.24;51.93;97366.75;4181245;28;5838;-72
2022/05/13 07:13:26;;;;;;;;;;;;;;;23.25;51.68;97367.56;4170571;28;5833;-77
2022/05/13 07:15:29;;;;;;;;;;;;;;;23.25;51.60;97367.56;4177571;28;5732;-81
2022/05/13 07:17:32;;;;;;;;;;;;;;;23.22;51.16;97362.69;4167759;28;5740;-76
2022/05/13 07:19:35;;;;;;;;;;;;;;;23.21;50.92;97367.25;4169160;28;5766;-79
2022/05/13 07:21:38;;;;;;;;;;;;;;;23.20;51.23;97365.63;4183634;28;5695;-81
2022/05/13 07:23:42;;;;;;;;;;;;;;;23.19;50.65;97357.78;4184735;28;5713;-79
2022/05/13 07:25:47;;;;;;;;;;;;;;;23.16;50.89;97359.13;4183572;28;5734;-79
2022/05/13 07:27:50;;;;;;;;;;;;;;;23.13;50.35;97359.66;4184860;28;5718;-81
2022/05/13 07:29:53;;;;;;;;;;;;;;;23.12;50.44;97365.31;4184313;28;5781;-79
2022/05/13 07:32:03;;;;;;;;;;;;;;;23.11;50.03;97359.13;4184687;28;5809;-80
2022/05/13 07:34:07;;;;;;;;;;;;;;;23.07;50.04;97360.69;4184440;28;5751;-80
2022/05/13 07:36:10;;;;;;;;;;;;;;;23.07;49.67;97366.06;4184477;28;5706;-80
2022/05/13 07:38:13;;;;;;;;;;;;;;;23.05;49.83;97362.84;4187147;28;5802;-80
2022/05/13 07:42:40;;;;;;;;;;;;;;;23.08;49.23;97372.28;4185660;28;5738;-80
2022/05/13 07:44:43;;;;;;;;;;;;;;;23.06;49.15;97369.84;4182914;28;5813;-79
2022/05/13 07:46:45;;;;;;;;;;;;;;;23.07;49.13;97376.06;4184572;28;5722;-79
2022/05/13 07:48:50;;;;;;;;;;;;;;;23.07;49.13;97370.66;4184379;28;5817;-79
2022/05/13 07:50:54;;;;;;;;;;;;;;;23.07;48.82;97373.34;4184719;28;5476;-80
2022/05/13 07:52:57;;;;;;;;;;;;;;;23.06;49.02;97377.13;4184323;28;6376;-79
2022/05/13 07:55:00;;;;;;;;;;;;;;;23.06;48.93;97377.94;4184268;28;5710;-80
2022/05/13 07:57:03;;;;;;;;;;;;;;;23.05;48.79;97372.81;4179366;28;5909;-80
2022/05/13 07:59:07;;;;;;;;;;;;;;;23.06;48.25;97372.53;4167981;28;5787;-79
2022/05/13 08:01:10;;;;;;;;;;;;;;;23.07;48.05;97370.66;4167802;28;5795;-79
2022/05/13 08:03:16;;;;;;;;;;;;;;;23.08;48.22;97381.19;4168029;28;5732;-79
2022/05/13 08:05:19;;;;;;;;;;;;;;;23.09;48.18;97374.72;4167972;28;5736;-79
2022/05/13 08:07:22;;;;;;;;;;;;;;;23.11;47.64;97378.00;4178674;28;5806;-80
2022/05/13 08:09:28;;;;;;;;;;;;;;;23.13;47.85;97372.34;4173651;28;5752;-79
2022/05/13 08:11:31;;;;;;;;;;;;;;;23.17;47.68;97373.44;4167784;28;5727;-79
2022/05/13 08:13:42;;;;;;;;;;;;;;;23.19;47.31;97373.97;4167512;28;5747;-81
2022/05/13 08:15:46;;;;;;;;;;;;;;;23.20;47.70;97376.41;4166141;28;5795;-80
2022/05/13 08:17:49;;;;;;;;;;;;;;;23.19;47.02;97366.69;4168183;28;5755;-80
2022/05/13 08:19:55;;;;;;;;;;;;;;;23.19;47.44;97360.50;4167786;28;5731;-80
2022/05/13 08:21:58;;;;;;;;;;;;;;;23.20;46.73;97360.22;4199641;28;5793;-79
2022/05/13 08:24:02;;;;;;;;;;;;;;;23.21;46.63;97361.84;4167952;28;5828;-81
2022/05/13 08:26:05;;;;;;;;;;;;;;;23.21;46.40;97361.84;4167752;28;7700;-80
2022/05/13 08:28:10;;;;;;;;;;;;;;;23.21;46.21;97361.84;4167860;28;5057;-80
2022/05/13 08:30:14;;;;;;;;;;;;;;;23.23;46.47;97351.63;4167302;28;5830;-79
2022/05/13 08:32:19;;;;;;;;;;;;;;;23.26;46.31;97354.88;4167431;28;5752;-80
2022/05/13 08:34:22;;;;;;;;;;;;;;;23.21;45.91;97358.34;4167744;28;5790;-79
2022/05/13 08:36:25;;;;;;;;;;;;;;;23.20;45.72;97349.44;4167613;28;5732;-79
2022/05/13 08:38:31;;;;;;;;;;;;;;;23.22;46.04;97357.28;4167677;28;5752;-80
2022/05/13 08:40:52;;;;;;;;;;;;;;;23.22;45.55;97351.91;4167319;28;5748;-79
2022/05/13 08:42:55;;;;;;;;;;;;;;;23.22;45.36;97354.59;4167476;28;5803;-80
2022/05/13 08:44:58;;;;;;;;;;;;;;;23.23;45.30;97354.34;4166448;28;5869;-80
2022/05/13 08:47:11;;;;;;;;;;;;;;;23.27;45.56;97348.41;4170437;28;5724;-80
2022/05/13 08:49:35;;;;;;;;;;;;;;;23.29;45.31;97357.88;4178191;28;5906;-80
2022/05/13 08:51:50;;;;;;;;;;;;;;;23.29;45.09;97363.25;4185694;28;5718;-80
2022/05/13 08:53:58;;;;;;;;;;;;;;;23.29;45.45;97362.44;4186956;28;5801;-79
2022/05/13 08:56:06;;;;;;;;;;;;;;;23.29;45.28;97351.66;4187176;28;5702;-80
2022/05/13 08:58:14;;;;;;;;;;;;;;;23.30;44.89;97345.19;4173020;28;6000;-81
2022/05/13 09:00:26;;;;;;;;;;;;;;;23.31;44.73;97338.72;4170240;28;5748;-80
2022/05/13 09:02:35;;;;;;;;;;;;;;;23.34;44.74;97343.59;4170583;28;5797;-80
2022/05/13 09:04:44;;;;;;;;;;;;;;;23.35;44.96;97340.66;4170345;28;5747;-80
2022/05/13 09:06:53;;;;;;;;;;;;;;;23.35;44.73;97340.66;4209604;28;5688;-80
2022/05/13 09:08:56;;;;;;;;;;;;;;;23.37;44.77;97343.88;4186282;28;6518;-81
2022/05/13 09:11:09;;;;;;;;;;;;;;;23.39;44.47;97343.63;4186556;28;5790;-81
2022/05/13 09:13:15;;;;;;;;;;;;;;;23.41;44.39;97344.16;4186665;28;5777;-81
2022/05/13 09:15:22;;;;;;;;;;;;;;;23.41;44.37;97334.19;4186311;28;5079;-80
2022/05/13 09:17:33;;;;;;;;;;;;;;;23.45;44.35;97334.50;4186718;28;5871;-80
2022/05/13 09:19:38;;;;;;;;;;;;;;;23.50;44.72;97329.13;4186722;28;5805;-79
2022/05/13 09:21:44;;;;;;;;;;;;;;;23.53;44.47;97333.97;4186511;28;5719;-80
2022/05/13 09:23:47;;;;;;;;;;;;;;;23.57;44.49;97335.09;4186610;28;5751;-79
2022/05/13 09:26:03;;;;;;;;;;;;;;;23.61;44.39;97332.69;4186702;28;6437;-79
2022/05/13 09:28:10;;;;;;;;;;;;;;;23.66;44.12;97330.81;4186289;28;5711;-81
2022/05/13 09:30:18;;;;;;;;;;;;;;;23.70;44.18;97331.94;4186279;28;5805;-81
2022/05/13 09:32:26;;;;;;;;;;;;;;;23.74;43.93;97330.31;4186533;28;5703;-81
2022/05/13 09:34:36;;;;;;;;;;;;;;;23.76;44.28;97325.47;4185333;28;6707;-81
2022/05/13 09:36:39;;;;;;;;;;;;;;;23.78;43.88;97319.78;4190630;28;7688;-81
2022/05/13 09:38:45;;;;;;;;;;;;;;;23.78;43.83;97317.94;4190817;28;5782;-81
2022/05/13 09:40:58;;;;;;;;;;;;;;;23.81;43.83;97319.28;4186714;28;5706;-81
2022/05/13 09:43:01;;;;;;;;;;;;;;;23.84;43.66;97320.63;4186290;28;5694;-80
2022/05/13 09:45:15;;;;;;;;;;;;;;;23.86;43.75;97316.59;4185955;28;5710;-81
2022/05/13 09:47:24;;;;;;;;;;;;;;;23.90;44.13;97314.16;4186648;28;5718;-80
2022/05/13 09:49:47;;;;;;;;;;;;;;;23.91;43.82;97322.03;4186519;28;5715;-80
2022/05/13 09:51:56;;;;;;;;;;;;;;;23.95;43.83;97314.19;4185034;28;5789;-81
2022/05/13 09:54:07;;;;;;;;;;;;;;;23.96;43.71;97319.31;4186359;28;5714;-81
2022/05/13 09:56:13;;;;;;;;;;;;;;;23.98;43.44;97311.75;4186127;28;6829;-80
2022/05/13 09:58:20;;;;;;;;;;;;;;;24.02;43.87;97307.47;4185620;28;5718;-80
2022/05/13 10:00:29;;;;;;;;;;;;;;;24.04;43.37;97312.59;4185754;28;5785;-80
2022/05/13 10:02:35;;;;;;;;;;;;;;;24.05;43.78;97311.53;4185889;28;5715;-80
2022/05/13 10:04:38;;;;;;;;;;;;;;;24.07;43.21;97303.97;4186036;28;5710;-79
2022/05/13 10:06:43;;;;;;;;;;;;;;;24.09;43.43;97310.72;4185556;28;5797;-79
2022/05/13 10:08:52;;;;;;;;;;;;;;;24.10;43.56;97309.63;4185302;28;5810;-79
2022/05/13 10:15:50;;;;;;;;;;;;;;;24.13;42.90;97302.09;4185743;28;5727;-79
2022/05/13 10:17:59;;;;;;;;;;;;;;;24.15;43.03;97302.63;4185677;28;5825;-80
2022/05/13 10:20:08;;;;;;;;;;;;;;;24.16;43.11;97302.38;4185869;28;5817;-80
2022/05/13 10:22:23;;;;;;;;;;;;;;;24.16;42.97;97296.97;4185994;28;5814;-80
2022/05/13 10:24:33;;;;;;;;;;;;;;;24.17;42.87;97297.78;4185608;28;5706;-80
2022/05/13 10:26:40;;;;;;;;;;;;;;;24.20;43.00;97292.63;4185707;28;5710;-80
2022/05/13 10:28:53;;;;;;;;;;;;;;;24.23;42.60;97283.19;4185834;28;5805;-80
2022/05/13 10:31:03;;;;;;;;;;;;;;;24.25;42.67;97292.66;4185232;28;5710;-80
2022/05/13 10:33:11;;;;;;;;;;;;;;;24.28;42.98;97286.72;4185524;28;8419;-80
2022/05/13 10:35:19;;;;;;;;;;;;;;;24.28;42.66;97284.00;4185462;28;5734;-80
2022/05/13 10:37:29;;;;;;;;;;;;;;;24.31;42.24;97286.19;4185388;28;5789;-80
2022/05/13 10:39:41;;;;;;;;;;;;;;;24.33;42.51;97284.03;4185375;28;5773;-81
2022/05/13 10:41:48;;;;;;;;;;;;;;;24.35;42.52;97283.75;4185361;28;5722;-81
2022/05/13 10:43:58;;;;;;;;;;;;;;;24.38;42.07;97286.75;4185459;28;5770;-81
2022/05/13 10:46:18;;;;;;;;;;;;;;;24.43;41.75;97285.94;4185074;28;6524;-79
2022/05/13 10:48:27;;;;;;;;;;;;;;;24.46;41.98;97279.16;4185320;28;5835;-81
2022/05/13 10:50:39;;;;;;;;;;;;;;;24.50;42.25;97277.56;4169009;28;5728;-80
2022/05/13 10:52:53;;;;;;;;;;;;;;;24.51;41.69;97282.69;4168740;28;5755;-80
2022/05/13 10:55:07;;;;;;;;;;;;;;;24.51;41.95;97290.00;4168596;28;5732;-80
2022/05/13 10:57:24;;;;;;;;;;;;;;;24.49;41.58;97287.56;4174627;28;5726;-80
2022/05/13 10:59:39;;;;;;;;;;;;;;;24.49;41.79;97284.88;4170216;28;5731;-80
2022/05/13 11:01:50;;;;;;;;;;;;;;;24.53;41.78;97295.94;4168416;28;5795;-81
2022/05/13 11:04:02;;;;;;;;;;;;;;;24.53;41.75;97290.53;4168552;28;5819;-80
2022/05/13 11:06:17;;;;;;;;;;;;;;;24.53;41.44;97280.53;4169832;28;5747;-81
2022/05/13 11:08:24;;;;;;;;;;;;;;;24.55;41.33;97289.19;4216025;28;5720;-79
2022/05/13 11:10:34;;;;;;;;;;;;;;;24.54;41.39;97275.94;4183775;28;5722;-79
2022/05/13 11:12:48;;;;;;;;;;;;;;;24.55;41.40;97288.38;4184670;28;5868;-80
2022/05/13 11:15:03;;;;;;;;;;;;;;;24.54;41.06;97282.16;4184598;28;5827;-80
2022/05/13 11:17:20;;;;;;;;;;;;;;;24.57;41.36;97283.50;4184719;28;5721;-79
2022/05/13 11:19:30;;;;;;;;;;;;;;;24.61;41.08;97287.28;4185193;28;5822;-79
2022/05/13 11:21:43;;;;;;;;;;;;;;;24.66;41.33;97279.16;4183635;28;5824;-79
2022/05/13 11:26:30;;;;;;;;;;;;;;;24.65;41.06;97278.38;4184670;28;5805;-79
2022/05/13 11:28:50;;;;;;;;;;;;;;;24.67;40.89;97273.50;4184465;28;5785;-79
2022/05/13 11:31:02;;;;;;;;;;;;;;;24.71;41.19;97281.06;4216465;28;5732;-80
2022/05/13 11:33:18;;;;;;;;;;;;;;;24.71;40.93;97271.06;4188313;28;5727;-79
2022/05/13 11:35:41;;;;;;;;;;;;;;;24.74;41.08;97278.63;4189017;28;5802;-79
2022/05/13 11:37:47;;;;;;;;;;;;;;;24.75;40.75;97272.13;4185139;28;5726;-80
2022/05/13 11:40:04;;;;;;;;;;;;;;;24.78;40.59;97273.47;4184682;28;5735;-79
2022/05/13 11:45:26;;;;;;;;;;;;;;;24.88;40.75;97270.75;4183752;28;6407;-81
2022/05/13 11:47:43;;;;;;;;;;;;;;;24.89;40.39;97270.50;4184334;28;5948;-81
2022/05/13 11:49:47;;;;;;;;;;;;;;;24.92;40.39;97263.75;4173550;28;5732;-79
2022/05/13 11:51:51;;;;;;;;;;;;;;;24.92;40.51;97267.25;4167771;28;5770;-79
2022/05/13 11:54:17;;;;;;;;;;;;;;;24.95;40.68;97265.91;4167810;28;5744;-80
2022/05/13 11:56:32;;;;;;;;;;;;;;;24.96;40.36;97264.81;4167812;28;5827;-79
2022/05/13 11:58:53;;;;;;;;;;;;;;;24.96;40.57;97265.63;4167481;28;5822;-80
2022/05/13 12:00:57;;;;;;;;;;;;;;;24.96;40.42;97262.91;4167716;28;5752;-79
2022/05/13 12:03:05;;;;;;;;;;;;;;;24.95;40.27;97264.00;4167942;28;5744;-80
2022/05/13 12:05:44;;;;;;;;;;;;;;;24.97;40.59;97256.41;4167785;28;5739;-80
2022/05/13 12:07:52;;;;;;;;;;;;;;;24.98;40.07;97260.75;4173389;28;5711;-79
2022/05/13 12:09:58;;;;;;;;;;;;;;;24.96;40.56;97254.81;4183916;28;5751;-80
2022/05/13 12:12:12;;;;;;;;;;;;;;;24.97;40.39;97261.00;4182792;28;5710;-79
2022/05/13 12:14:29;;;;;;;;;;;;;;;24.95;40.27;97264.00;4184012;28;5809;-79
2022/05/13 12:16:44;;;;;;;;;;;;;;;24.93;40.23;97263.47;4183924;28;5790;-80
2022/05/13 12:18:53;;;;;;;;;;;;;;;24.92;40.19;97250.22;4184410;28;5706;-80
2022/05/13 12:21:07;;;;;;;;;;;;;;;24.93;40.03;97259.97;4186042;28;5723;-80
2022/05/13 12:23:20;;;;;;;;;;;;;;;24.93;39.99;97258.06;4187565;28;5711;-79
2022/05/13 12:25:55;;;;;;;;;;;;;;;24.95;40.21;97253.19;4187359;28;5797;-80
2022/05/13 12:28:04;;;;;;;;;;;;;;;24.96;40.20;97256.69;4187357;28;5742;-81
2022/05/13 12:30:30;;;;;;;;;;;;;;;24.96;40.00;97254.81;4187011;28;5703;-80
2022/05/13 12:32:44;;;;;;;;;;;;;;;24.95;39.83;97253.19;4187283;28;5809;-79
2022/05/13 12:37:38;;;;;;;;;;;;;;;24.89;39.96;97240.75;4187302;28;5726;-80
2022/05/13 12:39:54;;;;;;;;;;;;;;;24.89;40.14;97238.03;4187488;28;5823;-80
2022/05/13 12:42:10;;;;;;;;;;;;;;;24.92;39.98;97234.81;4187212;28;5785;-80
2022/05/13 12:44:22;;;;;;;;;;;;;;;24.92;39.49;97232.09;4187091;28;5809;-79
2022/05/13 12:46:45;;;;;;;;;;;;;;;24.92;39.66;97239.41;4187010;28;5711;-80
2022/05/13 12:49:05;;;;;;;;;;;;;;;24.90;39.88;97228.84;4184102;28;5732;-81
2022/05/13 12:51:20;;;;;;;;;;;;;;;24.91;39.66;97227.75;4170926;28;5736;-80
2022/05/13 12:53:42;;;;;;;;;;;;;;;24.92;39.64;97229.41;4170347;28;6473;-80
2022/05/13 12:55:46;;;;;;;;;;;;;;;24.95;39.52;97233.44;4169347;28;5751;-80
2022/05/13 12:57:52;;;;;;;;;;;;;;;24.97;39.59;97232.06;4171575;28;5744;-80
2022/05/13 12:59:56;;;;;;;;;;;;;;;24.99;39.72;97231.78;4186784;28;5714;-82
2022/05/13 13:02:06;;;;;;;;;;;;;;;25.03;39.58;97223.97;4186860;28;5730;-80
2022/05/13 13:04:12;;;;;;;;;;;;;;;25.06;39.56;97229.66;4187054;28;5707;-81
2022/05/13 13:06:20;;;;;;;;;;;;;;;25.09;39.72;97223.69;4188494;28;5719;-80
2022/05/13 13:08:32;;;;;;;;;;;;;;;25.11;39.55;97223.41;4186854;28;5810;-80
2022/05/13 13:10:46;;;;;;;;;;;;;;;25.11;39.61;97218.00;4185678;28;5719;-80
2022/05/13 13:13:02;;;;;;;;;;;;;;;25.12;39.46;97222.31;4186179;28;5735;-81
2022/05/13 13:15:12;;;;;;;;;;;;;;;25.11;39.50;97218.00;4186458;28;5746;-80
2022/05/13 13:17:27;;;;;;;;;;;;;;;25.11;39.36;97216.09;4186686;28;5707;-81
2022/05/13 13:19:32;;;;;;;;;;;;;;;25.12;39.36;97206.91;4186772;28;5735;-80
2022/05/13 13:21:35;;;;;;;;;;;;;;;25.14;39.52;97209.31;4186613;28;5718;-82
2022/05/13 13:23:41;;;;;;;;;;;;;;;25.17;39.32;97214.19;4186694;28;5068;-81
2022/05/13 13:25:46;;;;;;;;;;;;;;;25.18;39.14;97210.41;4186561;28;5770;-80
2022/05/13 13:27:54;;;;;;;;;;;;;;;25.21;39.08;97210.66;4187284;28;5737;-80
2022/05/13 13:29:58;;;;;;;;;;;;;;;25.24;39.47;97206.56;4189473;28;5718;-81
2022/05/13 13:32:03;;;;;;;;;;;;;;;25.27;39.25;97197.13;4187704;28;5792;-80
2022/05/13 13:34:06;;;;;;;;;;;;;;;25.29;39.23;97203.88;4186523;28;6392;-80
2022/05/13 13:36:13;;;;;;;;;;;;;;;25.31;38.96;97203.59;4186245;28;5707;-81
2022/05/13 13:38:19;;;;;;;;;;;;;;;25.31;38.89;97193.56;4186496;28;6372;-81
2022/05/13 13:40:27;;;;;;;;;;;;;;;25.31;39.22;97200.88;4186249;28;5831;-81
2022/05/13 13:42:34;;;;;;;;;;;;;;;25.32;38.79;97189.78;4186408;28;5722;-80
2022/05/13 13:44:41;;;;;;;;;;;;;;;25.34;38.96;97190.31;4186435;28;5725;-81
2022/05/13 13:46:48;;;;;;;;;;;;;;;25.35;38.77;97188.41;4186335;28;5714;-81
2022/05/13 13:48:52;;;;;;;;;;;;;;;25.35;38.80;97189.22;4182781;28;5755;-80
2022/05/13 13:50:55;;;;;;;;;;;;;;;25.34;39.13;97193.00;4169736;28;5827;-80
2022/05/13 13:53:02;;;;;;;;;;;;;;;25.33;39.07;97193.28;4168186;28;5826;-81
2022/05/13 13:55:08;;;;;;;;;;;;;;;25.32;38.75;97181.66;4169178;28;5724;-81
2022/05/13 13:57:34;;;;;;;;;;;;;;;25.33;38.98;97185.16;4169629;28;5763;-81
2022/05/13 13:59:42;;;;;;;;;;;;;;;25.34;38.59;97176.78;4185201;28;5718;-80
2022/05/13 14:01:47;;;;;;;;;;;;;;;25.36;38.94;97185.41;4184766;28;5725;-81
2022/05/13 14:04:05;;;;;;;;;;;;;;;25.37;38.68;97178.94;4180526;28;5597;-80
2022/05/13 14:06:13;;;;;;;;;;;;;;;25.39;38.67;97184.06;4173492;28;5799;-79
2022/05/13 14:08:19;;;;;;;;;;;;;;;25.39;38.77;97178.66;4180871;28;5802;-78
2022/05/13 14:10:26;;;;;;;;;;;;;;;25.40;38.80;97175.66;4177358;28;5866;-77
2022/05/13 14:12:29;;;;;;;;;;;;;;;25.39;38.98;97179.47;4191299;28;5832;-80
2022/05/13 14:14:42;;;;;;;;;;;;;;;25.37;38.87;97170.00;4171040;28;7742;-80
2022/05/13 14:16:52;;;;;;;;;;;;;;;25.38;38.81;97172.44;4184139;28;5764;-79
2022/05/13 14:19:02;;;;;;;;;;;;;;;25.39;38.67;97171.34;4183019;28;5772;-81
2022/05/13 14:21:12;;;;;;;;;;;;;;;25.39;38.74;97168.66;4181480;28;5791;-80
2022/05/13 14:23:16;;;;;;;;;;;;;;;25.39;38.86;97171.34;4180560;28;6575;-80
2022/05/13 14:25:20;;;;;;;;;;;;;;;25.40;38.63;97170.25;4172333;28;5846;-81
2022/05/13 14:27:27;;;;;;;;;;;;;;;25.41;38.96;97171.88;4182967;28;5091;-80
2022/05/13 14:29:34;;;;;;;;;;;;;;;25.42;38.76;97173.50;4182877;28;5826;-80
2022/05/13 14:31:42;;;;;;;;;;;;;;;25.43;39.16;97168.88;4182635;28;5801;-80
2022/05/13 14:33:52;;;;;;;;;;;;;;;25.42;39.12;97168.06;4182832;28;5861;-82
2022/05/13 14:36:03;;;;;;;;;;;;;;;25.42;38.97;97165.38;4182790;28;5835;-78
2022/05/13 14:38:08;;;;;;;;;;;;;;;25.41;38.82;97161.03;4182629;28;5802;-79
2022/05/13 14:40:13;;;;;;;;;;;;;;;25.42;38.72;97168.06;4181315;28;5833;-80
2022/05/13 14:42:22;;;;;;;;;;;;;;;25.40;39.11;97164.84;4180645;28;5830;-80
2022/05/13 14:44:28;;;;;;;;;;;;;;;25.41;39.26;97157.53;4180872;28;5821;-80
2022/05/13 14:46:31;;;;;;;;;;;;;;;25.41;39.25;97163.75;4182378;28;5946;-80
2022/05/13 14:48:34;;;;;;;;;;;;;;;25.41;39.32;97158.34;4182678;28;5806;-80
2022/05/13 14:50:39;;;;;;;;;;;;;;;25.42;39.02;97161.84;4182417;28;5889;-80
2022/05/13 14:52:47;;;;;;;;;;;;;;;25.41;39.30;97155.63;4181941;28;5828;-80
2022/05/13 14:54:51;;;;;;;;;;;;;;;25.42;39.47;97161.84;4180259;28;7043;-80
2022/05/13 14:57:01;;;;;;;;;;;;;;;25.43;39.01;97158.06;4180913;28;5821;-80
2022/05/13 14:59:05;;;;;;;;;;;;;;;25.41;39.64;97161.03;4164909;28;5931;-80
2022/05/13 15:01:14;;;;;;;;;;;;;;;25.44;39.50;97155.06;4179232;28;5829;-80
2022/05/13 15:03:22;;;;;;;;;;;;;;;25.46;39.18;97152.06;4182323;28;5858;-80
2022/05/13 15:05:33;;;;;;;;;;;;;;;25.49;39.49;97151.53;4165811;28;5823;-79
2022/05/13 15:07:38;;;;;;;;;;;;;;;25.49;39.50;97149.66;4177769;28;5897;-80
2022/05/13 15:09:41;;;;;;;;;;;;;;;25.51;39.28;97155.56;4181560;28;5806;-80
2022/05/13 15:11:44;;;;;;;;;;;;;;;25.54;39.33;97155.00;4181981;28;5822;-79
2022/05/13 15:13:48;;;;;;;;;;;;;;;25.57;39.51;97158.25;4182066;28;5877;-80
2022/05/13 15:15:53;;;;;;;;;;;;;;;25.58;39.52;97155.25;4181746;28;5853;-80
2022/05/13 15:18:02;;;;;;;;;;;;;;;25.61;39.80;97153.91;4182183;28;5888;-79
2022/05/13 15:20:06;;;;;;;;;;;;;;;25.63;39.69;97157.13;4182240;28;5784;-80
2022/05/13 15:22:12;;;;;;;;;;;;;;;25.65;39.50;97150.34;4180471;28;5805;-80
2022/05/13 15:24:15;;;;;;;;;;;;;;;25.66;39.68;97151.16;4183510;28;5792;-80
2022/05/13 15:26:25;;;;;;;;;;;;;;;25.68;39.39;97154.38;4186189;28;5782;-80
2022/05/13 15:28:28;;;;;;;;;;;;;;;25.70;39.75;97158.44;4184325;28;5823;-80
2022/05/13 15:30:31;;;;;;;;;;;;;;;25.71;39.48;97143.84;4178244;28;5926;-81
2022/05/13 15:32:35;;;;;;;;;;;;;;;25.72;39.90;97145.47;4180077;28;5817;-80
2022/05/13 15:34:39;;;;;;;;;;;;;;;25.73;39.43;97154.38;4181750;28;5817;-80
2022/05/13 15:36:48;;;;;;;;;;;;;;;25.73;39.93;97146.28;4181725;28;5912;-80
2022/05/13 15:38:51;;;;;;;;;;;;;;;25.73;39.86;97152.50;4175433;28;5846;-80
2022/05/13 15:40:54;;;;;;;;;;;;;;;25.73;39.41;97152.50;4170158;28;5825;-80
2022/05/13 15:42:58;;;;;;;;;;;;;;;25.75;39.58;97154.91;4171415;28;5895;-80
2022/05/13 15:45:02;;;;;;;;;;;;;;;25.75;39.54;97150.31;4167341;28;5836;-81
2022/05/13 15:47:07;;;;;;;;;;;;;;;25.78;39.89;97148.94;4179593;28;5812;-80
2022/05/13 15:54:12;;;;;;;;;;;;;;;25.67;40.85;97158.19;4174170;28;5790;-80